Time;durP1;ratioP1;P1;durP2;ratioP2;P2;SDS_P1;SDS_P2;PMS_P1;PMS_P2;Temp;Humidity;BMP_temperature;BMP_pressure;BME280_temperature;BME280_humidity;BME280_pressure;Samples;Min_cycle;Max_cycle;Signal;HPM_P1;HPM_P2
2023/09/24 00:00:32;;;;;;;22.47;0.67;;;;;;;21.96;72.86;95289.91;5111780;28;20813;-62
2023/09/24 00:03:02;;;;;;;0.50;0.30;;;;;;;21.98;73.46;95292.31;5115736;28;20477;-62
2023/09/24 00:05:31;;;;;;;0.60;0.50;;;;;;;21.23;75.65;95297.28;5112305;28;20463;-62
2023/09/24 00:07:59;;;;;;;0.50;0.30;;;;;;;21.30;76.24;95299.44;5112025;28;20442;-62
2023/09/24 00:10:28;;;;;;;0.50;0.50;;;;;;;21.49;76.16;95297.75;5111555;28;21005;-62
2023/09/24 00:12:58;;;;;;;1.00;0.60;;;;;;;21.71;74.65;95303.78;5112156;28;20442;-63
2023/09/24 00:15:28;;;;;;;0.40;0.30;;;;;;;21.71;75.11;95295.69;5111975;28;20435;-62
2023/09/24 00:17:56;;;;;;;0.50;0.30;;;;;;;21.76;74.69;95295.44;5112018;28;20824;-63
2023/09/24 00:20:25;;;;;;;2.20;0.40;;;;;;;21.58;76.02;95291.44;5111558;28;20435;-62
2023/09/24 00:22:54;;;;;;;0.50;0.30;;;;;;;21.20;76.52;95302.59;5084852;28;20888;-62
2023/09/24 00:25:23;;;;;;;0.60;0.30;;;;;;;21.03;78.36;95297.34;5111151;28;20475;-61
2023/09/24 00:27:51;;;;;;;1.23;0.90;;;;;;;21.05;79.43;95297.81;5111886;28;20435;-61
2023/09/24 00:30:22;;;;;;;0.50;0.30;;;;;;;20.86;79.42;95296.44;5111411;28;20454;-61
2023/09/24 00:32:53;;;;;;;0.40;0.30;;;;;;;21.03;80.03;95305.44;5111063;28;20446;-61
2023/09/24 00:35:22;;;;;;;0.40;0.30;;;;;;;21.22;79.15;95305.72;5110495;28;20462;-61
2023/09/24 00:37:51;;;;;;;0.40;0.30;;;;;;;21.32;77.66;95302.59;5111466;28;20435;-60
2023/09/24 00:40:20;;;;;;;0.40;0.20;;;;;;;21.30;76.29;95302.13;5110963;28;20444;-60
2023/09/24 00:42:49;;;;;;;1.80;0.30;;;;;;;21.21;76.08;95296.06;5114104;28;20859;-60
2023/09/24 00:45:18;;;;;;;0.90;0.40;;;;;;;21.11;77.54;95302.69;5115796;28;20475;-62
2023/09/24 00:47:48;;;;;;;0.40;0.20;;;;;;;21.18;78.33;95297.50;5115732;28;20818;-62
2023/09/24 00:50:17;;;;;;;0.60;0.30;;;;;;;21.20;79.67;95299.88;5115679;28;20474;-62
2023/09/24 00:52:47;;;;;;;0.50;0.30;;;;;;;21.00;80.20;95301.50;5115323;28;20478;-60
2023/09/24 00:55:18;;;;;;;0.50;0.30;;;;;;;21.02;79.74;95293.09;5115358;28;20435;-60
2023/09/24 00:57:50;;;;;;;0.40;0.30;;;;;;;20.81;80.94;95271.63;5114926;28;20454;-60
2023/09/24 01:00:19;;;;;;;0.40;0.30;;;;;;;21.15;79.80;95284.69;5115254;28;20450;-60
2023/09/24 01:02:50;;;;;;;0.50;0.50;;;;;;;20.95;79.58;95284.78;5114768;28;20439;-60
2023/09/24 01:05:19;;;;;;;18.30;0.50;;;;;;;20.99;81.24;95288.38;5115160;28;20481;-60
2023/09/24 01:07:48;;;;;;;0.50;0.20;;;;;;;21.06;80.54;95280.53;5114754;27;20442;-60
2023/09/24 01:10:16;;;;;;;4.00;0.47;;;;;;;20.99;80.43;95264.91;5115066;28;20471;-60
2023/09/24 01:12:55;;;;;;;0.40;0.20;;;;;;;21.06;80.29;95278.63;5114712;28;20979;-60
2023/09/24 01:15:25;;;;;;;1.57;0.30;;;;;;;21.06;80.56;95284.03;5114872;28;20451;-60
2023/09/24 01:17:55;;;;;;;0.80;0.30;;;;;;;21.06;79.42;95267.06;5114933;28;20997;-60
2023/09/24 01:20:27;;;;;;;0.40;0.23;;;;;;;20.75;79.97;95276.44;5114125;28;20529;-60
2023/09/24 01:22:59;;;;;;;0.60;0.40;;;;;;;20.53;82.36;95270.66;5088452;28;20973;-60
2023/09/24 01:25:27;;;;;;;0.40;0.30;;;;;;;20.35;84.33;95280.81;5113730;28;20494;-60
2023/09/24 01:27:56;;;;;;;5.13;0.33;;;;;;;20.11;85.08;95246.50;5114529;28;20436;-60
2023/09/24 01:30:28;;;;;;;0.50;0.30;;;;;;;20.70;83.47;95270.47;5114299;28;20472;-61
2023/09/24 01:32:57;;;;;;;0.60;0.50;;;;;;;20.76;82.47;95263.75;5114556;28;20522;-60
2023/09/24 01:35:27;;;;;;;0.80;0.43;;;;;;;20.81;81.70;95272.41;5114655;28;20515;-61
2023/09/24 01:38:04;;;;;;;0.57;0.30;;;;;;;20.38;85.25;95268.59;5114985;28;20450;-60
2023/09/24 01:40:37;;;;;;;0.50;0.30;;;;;;;20.33;85.46;95260.72;5113794;28;20460;-61
2023/09/24 01:43:07;;;;;;;0.60;0.30;;;;;;;20.47;85.80;95261.22;5114946;28;20440;-60
2023/09/24 01:45:38;;;;;;;0.60;0.60;;;;;;;20.71;83.92;95254.00;5113965;28;21180;-60
2023/09/24 01:48:07;;;;;;;3.50;0.40;;;;;;;20.48;86.90;95260.09;5114309;28;20902;-60
2023/09/24 01:50:36;;;;;;;5.60;1.43;;;;;;;20.42;91.05;95274.88;5114386;28;20435;-60
2023/09/24 01:53:08;;;;;;;0.60;0.40;;;;;;;20.52;90.82;95271.78;5113632;28;20494;-60
2023/09/24 01:55:37;;;;;;;0.40;0.30;;;;;;;20.45;92.28;95280.41;5113764;28;20440;-60
2023/09/24 01:58:06;;;;;;;0.40;0.30;;;;;;;20.71;91.17;95274.75;5113638;28;20439;-60
2023/09/24 02:00:36;;;;;;;0.80;0.50;;;;;;;20.51;95.53;95272.91;5114299;28;20463;-60
2023/09/24 02:03:07;;;;;;;0.40;0.20;;;;;;;20.51;95.15;95279.09;5114276;28;20996;-60
2023/09/24 02:05:38;;;;;;;0.40;0.30;;;;;;;20.47;95.23;95280.84;5113789;28;20475;-60
2023/09/24 02:08:09;;;;;;;0.80;0.80;;;;;;;20.20;95.93;95252.59;5113722;28;20827;-60
2023/09/24 02:10:39;;;;;;;0.40;0.30;;;;;;;20.46;96.31;95278.50;5113541;28;20971;-60
2023/09/24 02:13:07;;;;;;;0.50;0.40;;;;;;;20.50;94.23;95276.72;5114594;28;20462;-60
2023/09/24 02:15:36;;;;;;;0.47;0.37;;;;;;;20.38;95.88;95268.59;5116298;28;20462;-59
2023/09/24 02:18:05;;;;;;;0.47;0.30;;;;;;;20.33;97.06;95274.97;5086862;28;20443;-59
2023/09/24 02:20:34;;;;;;;1.33;0.70;;;;;;;19.86;99.55;95236.75;5113674;28;20439;-60
2023/09/24 02:23:04;;;;;;;0.50;0.40;;;;;;;19.85;100.00;95229.00;5113195;28;20435;-59
2023/09/24 02:25:37;;;;;;;1.17;0.40;;;;;;;20.14;100.00;95275.44;5113469;27;20467;-60
2023/09/24 02:28:06;;;;;;;2.30;0.70;;;;;;;19.59;100.00;95274.91;5113371;28;20489;-60
2023/09/24 02:30:36;;;;;;;0.70;0.60;;;;;;;19.72;100.00;95276.56;5113759;28;20427;-60
2023/09/24 02:33:05;;;;;;;0.50;0.40;;;;;;;19.85;100.00;95270.16;5113369;28;20499;-60
2023/09/24 02:35:34;;;;;;;1.20;0.70;;;;;;;19.73;100.00;95264.72;5113102;28;20454;-60
2023/09/24 02:38:07;;;;;;;6.20;0.50;;;;;;;19.89;100.00;95276.44;5113678;28;20443;-60
2023/09/24 02:40:38;;;;;;;2.73;0.50;;;;;;;19.72;100.00;95268.50;5112420;28;20441;-60
2023/09/24 02:43:07;;;;;;;0.40;0.20;;;;;;;19.94;100.00;95264.69;5113522;28;20440;-60
2023/09/24 02:45:36;;;;;;;1.20;1.10;;;;;;;20.03;97.82;95255.44;5113520;27;20478;-60
2023/09/24 02:48:06;;;;;;;1.37;0.30;;;;;;;19.65;100.00;95268.25;5113335;28;20969;-59
2023/09/24 02:50:35;;;;;;;2.53;0.30;;;;;;;19.90;98.87;95264.56;5113281;28;20446;-60
2023/09/24 02:53:05;;;;;;;0.70;0.50;;;;;;;20.00;99.92;95263.38;5112321;28;20495;-60
2023/09/24 02:55:36;;;;;;;0.50;0.30;;;;;;;19.78;100.00;95264.53;5113578;28;20444;-60
2023/09/24 02:58:06;;;;;;;0.57;0.40;;;;;;;19.60;100.00;95271.13;5112857;28;20968;-60
2023/09/24 03:00:36;;;;;;;3.93;0.47;;;;;;;19.67;100.00;95268.69;5112995;28;20431;-60
2023/09/24 03:03:06;;;;;;;1.50;0.60;;;;;;;19.84;99.89;95265.09;5112118;28;20435;-60
2023/09/24 03:05:35;;;;;;;0.40;0.30;;;;;;;19.89;97.23;95241.47;5112073;28;20528;-60
2023/09/24 03:08:05;;;;;;;0.60;0.30;;;;;;;19.88;96.25;95255.25;5112637;28;20436;-59
2023/09/24 03:10:35;;;;;;;4.83;1.13;;;;;;;19.83;94.92;95228.56;5112947;28;20955;-60
2023/09/24 03:13:05;;;;;;;3.00;0.90;;;;;;;20.15;94.83;95268.94;5112793;28;20470;-60
2023/09/24 03:15:34;;;;;;;0.50;0.30;;;;;;;20.04;96.21;95266.97;5110892;28;20474;-60
2023/09/24 03:18:03;;;;;;;0.57;0.40;;;;;;;20.15;95.10;95271.63;5112212;28;20474;-60
2023/09/24 03:20:32;;;;;;;0.50;0.30;;;;;;;19.98;93.54;95230.66;5112691;28;20453;-60
2023/09/24 03:23:03;;;;;;;0.50;0.40;;;;;;;19.70;97.07;95269.94;5085288;28;20439;-60
2023/09/24 03:25:32;;;;;;;1.17;0.70;;;;;;;19.60;100.00;95269.22;5112365;28;20471;-60
2023/09/24 03:28:01;;;;;;;0.50;0.30;;;;;;;19.73;99.36;95269.31;5112893;28;20443;-60
2023/09/24 03:30:32;;;;;;;3.03;1.83;;;;;;;19.96;96.75;95274.00;5112907;28;20803;-59
2023/09/24 03:33:01;;;;;;;0.63;0.30;;;;;;;19.88;97.42;95268.72;5112950;28;20531;-60
2023/09/24 03:35:30;;;;;;;0.47;0.33;;;;;;;20.02;96.10;95261.13;5112375;28;20799;-61
2023/09/24 03:37:59;;;;;;;0.40;0.20;;;;;;;20.07;94.67;95269.00;5112860;28;20551;-61
2023/09/24 03:40:28;;;;;;;1.27;0.80;;;;;;;20.05;93.98;95269.34;5112105;28;20892;-60
2023/09/24 03:42:58;;;;;;;0.50;0.30;;;;;;;20.00;94.91;95269.56;5112350;28;20975;-60
2023/09/24 03:45:26;;;;;;;0.40;0.20;;;;;;;19.78;97.98;95271.78;5111393;28;20478;-59
2023/09/24 03:47:56;;;;;;;0.50;0.30;;;;;;;19.31;100.00;95279.97;5112093;28;20439;-59
2023/09/24 03:50:26;;;;;;;0.50;0.50;;;;;;;19.16;100.00;95279.72;5111345;28;20435;-59
2023/09/24 03:52:56;;;;;;;2.40;0.60;;;;;;;19.08;100.00;95283.22;5111754;28;20915;-60
2023/09/24 03:55:25;;;;;;;0.50;0.30;;;;;;;19.44;100.00;95283.56;5112226;28;20543;-60
2023/09/24 03:57:54;;;;;;;8.90;0.60;;;;;;;19.33;100.00;95293.06;5111865;28;20440;-60
2023/09/24 04:00:25;;;;;;;0.70;0.50;;;;;;;18.90;100.00;95234.19;5112512;28;20439;-60
2023/09/24 04:02:55;;;;;;;0.60;0.40;;;;;;;18.85;100.00;95282.69;5111866;28;20446;-60
2023/09/24 04:05:25;;;;;;;1.77;0.60;;;;;;;19.07;100.00;95289.72;5111979;27;20451;-60
2023/09/24 04:07:55;;;;;;;0.80;0.33;;;;;;;19.06;100.00;95290.84;5111884;28;20514;-59
2023/09/24 04:10:27;;;;;;;0.60;0.30;;;;;;;18.99;100.00;95267.97;5112422;28;20509;-59
2023/09/24 04:12:57;;;;;;;0.80;0.37;;;;;;;19.46;100.00;95297.44;5111182;28;20489;-60
2023/09/24 04:15:28;;;;;;;0.60;0.60;;;;;;;19.31;100.00;95292.59;5112011;28;20492;-59
2023/09/24 04:17:59;;;;;;;0.90;0.53;;;;;;;19.39;100.00;95297.19;5102670;28;20435;-60
2023/09/24 04:20:34;;;;;;;0.83;0.57;;;;;;;19.29;100.00;95298.31;5111989;28;20802;-59
2023/09/24 04:23:03;;;;;;;0.60;0.40;;;;;;;19.31;100.00;95293.41;5087273;28;20963;-59
2023/09/24 04:25:31;;;;;;;0.90;0.47;;;;;;;19.40;100.00;95293.41;5114690;28;20905;-60
2023/09/24 04:28:00;;;;;;;0.40;0.30;;;;;;;19.45;100.00;95296.69;5104070;28;20870;-60
2023/09/24 04:30:29;;;;;;;0.63;0.53;;;;;;;19.40;100.00;95291.50;5107289;28;20470;-59
2023/09/24 04:32:58;;;;;;;0.70;0.40;;;;;;;19.46;100.00;95295.56;5111813;28;20818;-59
2023/09/24 04:35:27;;;;;;;2.50;1.40;;;;;;;19.48;100.00;95293.31;5111741;28;20460;-59
2023/09/24 04:37:58;;;;;;;0.40;0.30;;;;;;;19.44;100.00;95294.31;5112076;28;20496;-59
2023/09/24 04:40:27;;;;;;;0.80;0.70;;;;;;;19.52;100.00;95291.56;5111321;28;20963;-60
2023/09/24 04:42:55;;;;;;;2.00;0.80;;;;;;;19.72;100.00;95294.59;5111305;28;20511;-59
2023/09/24 04:45:24;;;;;;;0.50;0.47;;;;;;;19.79;100.00;95289.47;5111181;28;20514;-60
2023/09/24 04:47:53;;;;;;;0.67;0.30;;;;;;;19.76;100.00;95304.38;5111080;28;20539;-59
2023/09/24 04:50:23;;;;;;;0.50;0.33;;;;;;;19.73;100.00;95304.25;5110806;28;20442;-59
2023/09/24 04:52:54;;;;;;;0.77;0.77;;;;;;;19.54;100.00;95267.03;5110974;28;20470;-60
2023/09/24 04:55:25;;;;;;;0.50;0.30;;;;;;;19.81;100.00;95301.50;5085806;28;20439;-60
2023/09/24 04:57:54;;;;;;;1.10;1.10;;;;;;;19.85;100.00;95288.97;5111257;28;20465;-60
2023/09/24 05:00:23;;;;;;;0.50;0.37;;;;;;;19.93;100.00;95296.19;5111609;28;20447;-59
2023/09/24 05:02:51;;;;;;;1.67;0.43;;;;;;;19.88;100.00;95303.69;5111207;28;20493;-61
2023/09/24 05:05:21;;;;;;;0.50;0.40;;;;;;;19.99;100.00;95300.25;5111821;28;20500;-61
2023/09/24 05:07:53;;;;;;;2.73;0.70;;;;;;;20.03;100.00;95300.38;5111142;28;20878;-60
2023/09/24 05:10:22;;;;;;;0.40;0.30;;;;;;;19.71;100.00;95250.78;5111159;28;20950;-60
2023/09/24 05:12:52;;;;;;;0.50;0.40;;;;;;;19.61;100.00;95310.31;5110824;28;20439;-60
2023/09/24 05:15:20;;;;;;;0.50;0.30;;;;;;;19.30;100.00;95296.41;5111341;28;20956;-60
2023/09/24 05:17:49;;;;;;;0.70;0.70;;;;;;;19.44;100.00;95305.06;5110706;28;20431;-61
2023/09/24 05:20:17;;;;;;;1.43;0.97;;;;;;;19.74;100.00;95303.91;5111492;28;20446;-62
2023/09/24 05:22:46;;;;;;;0.43;0.30;;;;;;;19.96;100.00;95292.06;5110239;28;20440;-61
2023/09/24 05:25:15;;;;;;;0.40;0.30;;;;;;;20.09;100.00;95299.84;5111315;28;20856;-63
2023/09/24 05:27:43;;;;;;;1.13;0.30;;;;;;;20.16;100.00;95302.78;5110588;28;20475;-63
2023/09/24 05:30:15;;;;;;;2.43;0.43;;;;;;;20.22;100.00;95311.47;5113867;28;20854;-64
2023/09/24 05:32:43;;;;;;;12.53;0.40;;;;;;;20.18;100.00;95270.19;5088149;28;20504;-64
2023/09/24 05:35:12;;;;;;;1.43;1.27;;;;;;;20.53;99.29;95297.59;5115138;28;20443;-65
2023/09/24 05:37:40;;;;;;;0.50;0.40;;;;;;;20.68;97.46;95305.84;5114967;28;20443;-65
2023/09/24 05:40:10;;;;;;;0.40;0.30;;;;;;;20.78;99.23;95299.22;5114384;28;20466;-65
2023/09/24 05:42:41;;;;;;;0.60;0.43;;;;;;;21.03;96.76;95305.44;5114939;28;20431;-66
2023/09/24 05:45:10;;;;;;;0.80;0.53;;;;;;;20.81;94.86;95255.47;5115060;28;20443;-65
2023/09/24 05:47:40;;;;;;;1.00;0.60;;;;;;;21.21;94.58;95299.53;5114940;28;20503;-66
2023/09/24 05:50:09;;;;;;;1.00;0.70;;;;;;;21.27;95.52;95300.09;5113574;28;21046;-67
2023/09/24 05:52:38;;;;;;;0.60;0.40;;;;;;;21.40;93.28;95305.16;5103694;28;20468;-67
2023/09/24 05:55:07;;;;;;;0.90;0.40;;;;;;;21.68;91.37;95301.78;5112520;28;20772;-69
2023/09/24 05:57:36;;;;;;;0.47;0.30;;;;;;;22.11;88.80;95291.13;5114408;28;20496;-66
2023/09/24 06:00:08;;;;;;;0.60;0.30;;;;;;;21.73;90.59;95226.00;5114528;28;20458;-64
2023/09/24 06:02:37;;;;;;;2.97;0.63;;;;;;;22.35;88.98;95303.75;5114500;28;20435;-63
2023/09/24 06:05:09;;;;;;;0.70;0.70;;;;;;;22.41;86.50;95311.28;5114042;28;20431;-63
2023/09/24 06:07:37;;;;;;;1.00;0.50;;;;;;;22.12;87.44;95314.28;5114178;28;20473;-61
2023/09/24 06:10:09;;;;;;;5.23;1.60;;;;;;;22.14;86.97;95310.13;5114298;28;20447;-61
2023/09/24 06:12:38;;;;;;;8.47;3.80;;;;;;;22.18;86.75;95315.63;5113929;28;20446;-60
2023/09/24 06:15:10;;;;;;;0.87;0.80;;;;;;;22.66;84.92;95310.06;5113759;28;21043;-59
2023/09/24 06:17:39;;;;;;;2.93;2.70;;;;;;;23.05;82.46;95310.28;5110390;28;20437;-59
2023/09/24 06:20:11;;;;;;;1.43;1.13;;;;;;;23.13;80.37;95314.72;5103803;28;20970;-59
2023/09/24 06:22:40;;;;;;;1.27;0.77;;;;;;;23.59;79.26;95308.53;5113229;28;20994;-58
2023/09/24 06:25:09;;;;;;;3.87;1.00;;;;;;;23.60;75.58;95301.22;5114364;28;20427;-58
2023/09/24 06:27:37;;;;;;;1.37;1.17;;;;;;;23.63;75.29;95301.28;5113677;28;20832;-58
2023/09/24 06:30:08;;;;;;;0.77;0.47;;;;;;;24.20;73.91;95300.63;5113683;28;20434;-56
2023/09/24 06:32:36;;;;;;;2.17;1.10;;;;;;;23.96;71.31;95303.56;5113502;28;20951;-57
2023/09/24 06:35:06;;;;;;;1.17;0.73;;;;;;;24.45;71.28;95293.78;5114202;28;20479;-57
2023/09/24 06:37:36;;;;;;;0.70;0.67;;;;;;;24.79;70.06;95300.28;5088801;28;20449;-58
2023/09/24 06:40:06;;;;;;;1.27;1.10;;;;;;;25.10;68.99;95296.53;5113214;28;20504;-58
2023/09/24 06:42:34;;;;;;;7.20;3.30;;;;;;;25.06;69.63;95301.13;5113424;28;20440;-58
2023/09/24 06:45:02;;;;;;;1.47;1.17;;;;;;;25.36;67.67;95295.81;5113239;28;20443;-58
2023/09/24 06:47:31;;;;;;;2.30;1.93;;;;;;;25.53;67.33;95260.84;5113477;28;20474;-58
2023/09/24 06:50:00;;;;;;;11.63;0.60;;;;;;;25.59;66.66;95293.88;5113166;28;20471;-57
2023/09/24 06:52:30;;;;;;;8.43;0.50;;;;;;;25.53;66.68;95293.41;5112770;28;20516;-58
2023/09/24 06:55:00;;;;;;;5.00;1.30;;;;;;;26.33;65.32;95297.66;5113015;28;20435;-59
2023/09/24 06:57:29;;;;;;;1.00;0.80;;;;;;;26.48;63.80;95281.16;5113528;27;20443;-59
2023/09/24 06:59:57;;;;;;;0.63;0.63;;;;;;;27.43;62.08;95294.94;5113173;28;20531;-59
2023/09/24 07:02:26;;;;;;;1.33;1.13;;;;;;;27.60;59.92;95288.84;5112016;27;20893;-60
2023/09/24 07:04:55;;;;;;;0.67;0.60;;;;;;;27.59;61.16;95292.75;5111023;28;20443;-60
2023/09/24 07:07:23;;;;;;;0.70;0.70;;;;;;;27.72;59.39;95287.78;5110360;28;20459;-60
2023/09/24 07:09:52;;;;;;;2.27;2.07;;;;;;;26.51;60.65;95276.13;5110997;28;20447;-61
2023/09/24 07:12:22;;;;;;;3.70;1.13;;;;;;;27.33;60.39;95289.38;5111273;28;20435;-59
2023/09/24 07:14:50;;;;;;;0.87;0.87;;;;;;;27.88;59.99;95292.94;5098050;28;20439;-59
2023/09/24 07:17:19;;;;;;;2.00;0.60;;;;;;;27.52;57.87;95276.34;5110744;28;20443;-59
2023/09/24 07:19:47;;;;;;;6.23;2.03;;;;;;;27.50;57.94;95283.34;5112448;28;20443;-57
2023/09/24 07:22:17;;;;;;;0.60;0.40;;;;;;;27.53;57.99;95280.63;5112754;28;20436;-57
2023/09/24 07:24:45;;;;;;;0.90;0.60;;;;;;;28.41;57.35;95287.78;5112675;28;20850;-58
2023/09/24 07:27:14;;;;;;;5.40;1.73;;;;;;;28.99;54.90;95280.19;5111958;27;20861;-59
2023/09/24 07:29:45;;;;;;;0.50;0.50;;;;;;;29.35;52.58;95273.59;5112597;28;20817;-58
2023/09/24 07:32:14;;;;;;;0.63;0.47;;;;;;;29.67;51.44;95275.53;5112323;28;20492;-57
2023/09/24 07:34:46;;;;;;;0.83;0.83;;;;;;;30.25;49.90;95275.06;5112721;28;20457;-58
2023/09/24 07:37:15;;;;;;;0.70;0.70;;;;;;;30.91;48.79;95275.97;5112742;28;20944;-58
2023/09/24 07:39:49;;;;;;;0.60;0.60;;;;;;;31.54;45.84;95267.31;5112504;28;20966;-57
2023/09/24 07:42:17;;;;;;;0.40;0.30;;;;;;;31.02;46.40;95230.91;5112075;28;20441;-58
2023/09/24 07:44:47;;;;;;;1.80;0.53;;;;;;;30.59;48.60;95262.41;5112648;28;20478;-58
2023/09/24 07:47:16;;;;;;;4.47;1.20;;;;;;;29.99;50.41;95262.63;5085753;28;20488;-58
2023/09/24 07:49:44;;;;;;;3.13;0.43;;;;;;;29.87;50.18;95231.03;5112382;28;20474;-56
2023/09/24 07:52:14;;;;;;;0.90;0.90;;;;;;;30.43;49.09;95251.97;5111640;28;20523;-57
2023/09/24 07:54:42;;;;;;;4.07;0.93;;;;;;;30.82;47.93;95259.94;5112032;28;20473;-58
2023/09/24 07:57:15;;;;;;;0.50;0.50;;;;;;;31.57;47.04;95258.31;5112569;28;20442;-58
2023/09/24 07:59:43;;;;;;;0.40;0.30;;;;;;;31.90;46.03;95254.81;5112199;28;20582;-57
2023/09/24 08:02:13;;;;;;;0.53;0.53;;;;;;;31.80;44.51;95257.69;5112326;28;20435;-57
2023/09/24 08:04:42;;;;;;;0.40;0.30;;;;;;;31.84;44.86;95250.19;5111180;28;20431;-56
2023/09/24 08:07:10;;;;;;;2.10;0.50;;;;;;;31.49;44.67;95250.53;5111907;28;20435;-56
2023/09/24 08:09:40;;;;;;;0.60;0.40;;;;;;;32.04;43.70;95253.94;5111735;28;20474;-56
2023/09/24 08:12:08;;;;;;;1.07;1.07;;;;;;;31.69;43.79;95254.25;5111988;28;21023;-55
2023/09/24 08:14:37;;;;;;;0.70;0.60;;;;;;;31.89;44.92;95247.81;5112216;28;20854;-56
2023/09/24 08:17:06;;;;;;;0.40;0.40;;;;;;;32.05;44.38;95244.53;5112304;28;20457;-56
2023/09/24 08:19:36;;;;;;;3.33;1.30;;;;;;;32.35;42.88;95241.81;5111928;28;20438;-56
2023/09/24 08:22:04;;;;;;;0.80;0.80;;;;;;;33.12;41.66;95239.22;5111622;28;20438;-56
2023/09/24 08:24:32;;;;;;;0.77;0.77;;;;;;;33.73;41.73;95245.31;5085155;28;20465;-56
2023/09/24 08:27:01;;;;;;;0.70;0.40;;;;;;;32.67;41.46;95229.66;5111758;28;20464;-56
2023/09/24 08:29:30;;;;;;;1.43;0.80;;;;;;;32.82;42.72;95233.78;5111947;28;20485;-56
2023/09/24 08:31:58;;;;;;;1.07;1.00;;;;;;;33.05;40.40;95242.88;5111707;28;20818;-56
2023/09/24 08:34:27;;;;;;;0.73;0.73;;;;;;;33.28;40.83;95242.13;5111844;28;20594;-56
2023/09/24 08:36:57;;;;;;;0.70;0.47;;;;;;;32.76;41.07;95227.22;5111245;28;20455;-56
2023/09/24 08:39:25;;;;;;;0.70;0.70;;;;;;;32.57;42.76;95229.41;5111587;28;20471;-56
2023/09/24 08:41:54;;;;;;;1.20;1.20;;;;;;;32.60;43.85;95239.56;5111012;28;20436;-56
2023/09/24 08:44:25;;;;;;;3.23;1.30;;;;;;;32.88;41.24;95246.63;5111514;28;20821;-56
2023/09/24 08:46:54;;;;;;;0.80;0.80;;;;;;;32.63;40.81;95213.28;5110902;28;20434;-56
2023/09/24 08:49:23;;;;;;;0.60;0.40;;;;;;;33.24;39.90;95231.19;5111131;28;20883;-56
2023/09/24 08:51:51;;;;;;;1.30;1.20;;;;;;;33.59;39.58;95234.59;5111412;28;20982;-56
2023/09/24 08:54:22;;;;;;;6.20;0.50;;;;;;;33.90;41.57;95232.47;5111343;28;20435;-56
2023/09/24 08:56:50;;;;;;;5.40;0.73;;;;;;;34.06;38.64;95233.34;5111194;28;20438;-56
2023/09/24 08:59:19;;;;;;;1.80;0.40;;;;;;;34.37;37.39;95233.91;5111720;28;20511;-57
2023/09/24 09:01:54;;;;;;;0.70;0.70;;;;;;;34.71;38.02;95219.88;5111568;28;20427;-56
2023/09/24 09:04:23;;;;;;;2.63;0.50;;;;;;;35.82;35.71;95225.09;5113821;28;20441;-55
2023/09/24 09:06:52;;;;;;;0.70;0.67;;;;;;;35.13;38.08;95223.66;5115738;28;20441;-55
2023/09/24 09:09:27;;;;;;;0.60;0.57;;;;;;;35.33;37.18;95221.59;5115485;27;20222;-55
2023/09/24 09:11:56;;;;;;;1.47;0.70;;;;;;;35.14;35.43;95222.44;5115380;28;20261;-57
2023/09/24 09:14:35;;;;;;;1.37;1.30;;;;;;;35.21;34.87;95219.53;5115162;28;20228;-55
2023/09/24 09:17:03;;;;;;;0.60;0.60;;;;;;;36.00;35.02;95214.41;5115514;27;20196;-56
2023/09/24 09:19:48;;;;;;;0.70;0.50;;;;;;;35.38;34.39;95212.78;5114908;27;20199;-56
2023/09/24 09:22:18;;;;;;;0.33;0.30;;;;;;;35.41;36.49;95214.69;5115530;28;20193;-57
2023/09/24 09:24:49;;;;;;;1.30;0.70;;;;;;;36.10;36.23;95214.09;5115049;28;20235;-56
2023/09/24 09:27:18;;;;;;;2.10;0.60;;;;;;;36.81;35.47;95212.81;5114672;28;20283;-57
2023/09/24 09:29:46;;;;;;;0.50;0.50;;;;;;;36.61;36.78;95201.22;5114815;28;20693;-57
2023/09/24 09:32:15;;;;;;;2.25;0.60;;;;;;;35.80;37.24;95199.94;5115270;28;20262;-56
2023/09/24 09:34:53;;;;;;;3.10;1.13;;;;;;;35.69;35.31;95197.47;5104943;28;20807;-57
2023/09/24 09:37:22;;;;;;;0.50;0.40;;;;;;;34.56;36.10;95211.13;5113590;28;20199;-57
2023/09/24 09:39:53;;;;;;;0.50;0.30;;;;;;;34.58;36.54;95205.97;5115012;27;20710;-58
2023/09/24 09:42:25;;;;;;;3.80;0.47;;;;;;;34.95;36.59;95205.53;5114919;28;20565;-57
2023/09/24 09:44:55;;;;;;;0.50;0.50;;;;;;;34.81;37.35;95199.56;5114738;28;20258;-57
2023/09/24 09:47:28;;;;;;;1.73;0.47;;;;;;;34.79;37.89;95201.97;5115116;28;20224;-57
2023/09/24 09:49:59;;;;;;;0.40;0.30;;;;;;;34.65;36.96;95196.78;5114820;28;20215;-57
2023/09/24 09:52:34;;;;;;;0.50;0.30;;;;;;;34.72;37.55;95200.16;5114660;28;20266;-58
2023/09/24 09:55:07;;;;;;;3.13;1.03;;;;;;;34.81;36.85;95197.56;5114137;28;20200;-56
2023/09/24 09:57:37;;;;;;;0.57;0.57;;;;;;;34.91;37.71;95206.81;5114895;28;20303;-57
2023/09/24 10:00:07;;;;;;;0.30;0.30;;;;;;;34.27;37.74;95177.13;5114469;28;20787;-56
2023/09/24 10:02:36;;;;;;;0.53;0.50;;;;;;;34.09;38.31;95201.47;5114051;28;20445;-57
2023/09/24 10:05:07;;;;;;;3.40;0.50;;;;;;;34.04;37.92;95199.97;5088813;28;20197;-57
2023/09/24 10:07:38;;;;;;;2.10;0.63;;;;;;;33.65;37.53;95153.94;5114046;28;21009;-57
2023/09/24 10:10:44;;;;;;;1.33;0.40;;;;;;;33.58;38.64;95195.31;5114322;28;20478;-58
2023/09/24 10:13:44;;;;;;;0.50;0.40;;;;;;;33.32;40.51;95192.63;5080495;28;20439;-57
2023/09/24 10:16:34;;;;;;;0.83;0.40;;;;;;;32.99;40.60;95186.81;5111582;28;20439;-57
2023/09/24 10:19:05;;;;;;;0.50;0.40;;;;;;;33.36;38.87;95185.09;5113714;28;20435;-58
2023/09/24 10:21:35;;;;;;;0.50;0.30;;;;;;;33.00;39.61;95182.13;5113792;28;20435;-58
2023/09/24 10:24:39;;;;;;;0.60;0.43;;;;;;;32.94;39.86;95175.56;5113591;28;20437;-58
2023/09/24 10:27:09;;;;;;;0.30;0.30;;;;;;;32.71;40.39;95173.56;5111051;28;20450;-58
2023/09/24 10:30:08;;;;;;;0.40;0.30;;;;;;;32.38;40.29;95174.38;5113487;27;20478;-57
2023/09/24 10:32:52;;;;;;;0.40;0.30;;;;;;;32.47;40.02;95166.41;5113862;28;20466;-57
2023/09/24 10:35:20;;;;;;;1.70;1.60;;;;;;;32.58;39.92;95165.13;5113423;27;20444;-58
2023/09/24 10:38:04;;;;;;;0.50;0.50;;;;;;;32.90;40.24;95163.84;5113766;28;20564;-59
2023/09/24 10:40:34;;;;;;;0.33;0.27;;;;;;;33.30;39.66;95162.81;5112586;28;20447;-59
2023/09/24 10:43:15;;;;;;;0.40;0.30;;;;;;;33.02;39.07;95152.25;5113825;28;20434;-58
2023/09/24 10:45:44;;;;;;;0.60;0.40;;;;;;;32.47;40.44;95109.56;5088829;28;20438;-59
2023/09/24 10:48:13;;;;;;;1.90;0.60;;;;;;;32.62;40.37;95119.16;5113272;28;20484;-58
2023/09/24 10:50:44;;;;;;;0.50;0.50;;;;;;;32.86;40.67;95157.63;5113592;28;20501;-59
2023/09/24 10:53:18;;;;;;;11.53;0.67;;;;;;;32.27;40.24;95149.84;5112390;28;20466;-58
2023/09/24 10:55:46;;;;;;;7.73;1.67;;;;;;;31.96;41.73;95145.50;5113372;28;20923;-58
2023/09/24 10:58:34;;;;;;;1.07;0.97;;;;;;;32.03;42.24;95139.94;5112914;28;20799;-58
2023/09/24 11:01:02;;;;;;;0.60;0.60;;;;;;;32.12;41.13;95148.47;5112966;28;20449;-58
2023/09/24 11:03:35;;;;;;;2.00;0.70;;;;;;;32.42;40.83;95139.44;5114033;28;20873;-59
2023/09/24 11:06:07;;;;;;;0.50;0.40;;;;;;;32.62;40.41;95140.34;5117380;28;20445;-59
2023/09/24 11:08:36;;;;;;;1.60;0.43;;;;;;;32.18;40.90;95137.81;5113445;28;21023;-59
2023/09/24 11:11:05;;;;;;;5.50;0.47;;;;;;;32.41;41.26;95129.66;5112958;28;20567;-58
2023/09/24 11:13:36;;;;;;;1.07;0.53;;;;;;;33.08;40.35;95121.22;5112896;27;20495;-58
2023/09/24 11:16:05;;;;;;;0.50;0.40;;;;;;;33.08;40.49;95128.66;5112451;28;20453;-58
2023/09/24 11:18:33;;;;;;;0.40;0.40;;;;;;;33.24;39.90;95126.03;5113082;28;20526;-58
2023/09/24 11:21:02;;;;;;;0.50;0.40;;;;;;;32.95;39.63;95122.19;5112903;28;20781;-59
2023/09/24 11:23:37;;;;;;;7.03;1.47;;;;;;;32.65;40.08;95076.41;5112884;28;20531;-59
2023/09/24 11:26:06;;;;;;;2.43;0.50;;;;;;;32.57;40.50;95127.88;5112160;28;20430;-57
2023/09/24 11:28:36;;;;;;;0.60;0.57;;;;;;;32.55;42.46;95124.00;5113251;28;20541;-58
2023/09/24 11:31:04;;;;;;;0.80;0.30;;;;;;;32.98;41.44;95118.59;5112871;28;20496;-58
2023/09/24 11:33:33;;;;;;;0.63;0.63;;;;;;;32.93;40.57;95122.59;5112786;28;20466;-57
2023/09/24 11:36:02;;;;;;;1.23;1.13;;;;;;;33.13;41.71;95128.19;5112373;28;20435;-57
2023/09/24 11:38:32;;;;;;;1.20;0.77;;;;;;;33.82;39.92;95114.38;5112188;28;20446;-58
2023/09/24 11:41:08;;;;;;;0.60;0.60;;;;;;;34.98;40.65;95113.78;5112430;28;20794;-57
2023/09/24 11:43:39;;;;;;;0.60;0.50;;;;;;;36.04;36.24;95110.22;5112700;28;20426;-57
2023/09/24 11:46:18;;;;;;;0.50;0.37;;;;;;;36.83;36.82;95105.44;5112381;28;20430;-56